createdAt,value
2019-02-17T08:22:08.190Z,71.96
2019-02-17T08:22:43.675Z,72.34
2019-02-17T08:23:19.302Z,73.57
2019-02-17T08:23:54.957Z,74.05
2019-02-17T08:24:30.349Z,73.86
2019-02-17T08:25:05.569Z,73.00
2019-02-17T08:25:40.845Z,73.29
2019-02-17T08:26:16.062Z,73.76
2019-02-17T08:26:51.444Z,72.25
2019-02-17T08:27:26.764Z,73.48
2019-02-17T08:28:02.012Z,74.62
2019-02-17T08:28:37.531Z,74.90
2019-02-17T08:29:12.639Z,74.33
2019-02-17T08:29:48.257Z,74.33
2019-02-17T08:30:23.348Z,73.86
2019-02-17T08:30:59.154Z,73.76
2019-02-17T08:31:34.438Z,74.15
2019-02-17T08:32:09.937Z,74.27
2019-02-17T08:32:45.194Z,74.37
2019-02-17T08:33:20.838Z,75.00
2019-02-17T08:33:56.110Z,75.13
2019-02-17T08:34:31.635Z,75.32
2019-02-17T08:35:07.001Z,75.32
2019-02-17T08:35:42.198Z,75.79
2019-02-17T08:36:17.364Z,75.79
2019-02-17T08:36:52.797Z,75.51
2019-02-17T08:37:28.157Z,75.51
2019-02-17T08:38:04.029Z,75.42
2019-02-17T08:38:39.195Z,76.18
2019-02-17T08:39:14.507Z,76.18
2019-02-17T08:39:50.126Z,76.75
2019-02-17T08:40:25.438Z,76.27
2019-02-17T08:41:00.989Z,77.41
2019-02-17T08:41:36.503Z,76.37
2019-02-17T08:42:12.182Z,75.70
2019-02-17T08:42:47.404Z,76.65
2019-02-17T08:43:22.737Z,77.31
2019-02-17T08:44:00.734Z,77.73
2019-02-17T08:44:33.903Z,76.84
2019-02-17T08:45:09.508Z,76.69
2019-02-17T08:45:44.751Z,77.73
2019-02-17T08:46:19.961Z,77.83
2019-02-17T08:46:55.592Z,77.73
2019-02-17T08:47:31.014Z,77.92
2019-02-17T08:48:06.392Z,78.11
2019-02-17T08:48:41.517Z,78.50
2019-02-17T08:49:17.021Z,77.92
2019-02-17T08:49:52.527Z,77.92
2019-02-17T08:50:27.800Z,77.73
2019-02-17T08:51:03.276Z,78.50
2019-02-17T08:51:38.637Z,79.16
2019-02-17T08:52:13.966Z,78.69
2019-02-17T08:52:49.245Z,78.78
2019-02-17T08:53:24.643Z,79.06
2019-02-17T08:53:59.717Z,79.92
2019-02-17T08:54:34.931Z,79.44
2019-02-17T08:55:10.224Z,79.25
2019-02-17T08:55:45.557Z,78.69
2019-02-17T08:56:21.943Z,78.59
2019-02-17T08:56:57.663Z,79.73
2019-02-17T08:57:32.962Z,79.86
2019-02-17T08:58:08.287Z,79.20
2019-02-17T08:58:43.546Z,79.86
2019-02-17T08:59:19.080Z,80.05
2019-02-17T08:59:54.554Z,79.68
2019-02-17T09:00:29.770Z,79.77
2019-02-17T09:01:05.187Z,79.77
2019-02-17T09:01:41.221Z,80.44
2019-02-17T09:02:16.618Z,80.34
2019-02-17T09:02:52.039Z,80.05
2019-02-17T09:03:27.236Z,80.15
2019-02-17T09:04:02.638Z,80.44
2019-02-17T09:04:38.118Z,80.53
2019-02-17T09:05:13.431Z,79.77
2019-02-17T09:05:48.607Z,80.34
2019-02-17T09:06:24.154Z,80.15
2019-02-17T09:06:59.363Z,80.34
2019-02-17T09:07:34.872Z,80.24
2019-02-17T09:08:10.366Z,80.44
2019-02-17T09:08:45.587Z,80.05
2019-02-17T09:09:20.892Z,80.34
2019-02-17T09:09:56.126Z,80.53
2019-02-17T09:10:31.295Z,80.66
2019-02-17T09:11:06.690Z,80.66
2019-02-17T09:11:42.107Z,80.19
2019-02-17T09:12:17.423Z,80.38
2019-02-17T09:12:52.596Z,80.47
2019-02-17T09:13:27.999Z,79.91
2019-02-17T09:14:03.203Z,79.72
2019-02-17T09:14:38.321Z,80.38
2019-02-17T09:15:13.511Z,80.47
2019-02-17T09:15:48.624Z,80.13
2019-02-17T09:16:24.100Z,80.04
2019-02-17T09:16:59.399Z,80.23
2019-02-17T09:17:34.774Z,80.52
2019-02-17T09:18:09.996Z,80.52
2019-02-17T09:18:45.399Z,81.09
2019-02-17T09:19:20.613Z,80.61
2019-02-17T09:19:55.795Z,80.42
2019-02-17T09:20:31.318Z,80.80
2019-02-17T09:21:06.741Z,80.61
2019-02-17T09:21:42.429Z,80.33
2019-02-17T09:22:17.726Z,80.52
2019-02-17T09:22:52.930Z,81.09
2019-02-17T09:23:28.298Z,80.33
2019-02-17T09:24:03.622Z,80.80
2019-02-17T09:24:39.108Z,81.32
2019-02-17T09:25:14.614Z,80.52
2019-02-17T09:25:49.818Z,80.55
2019-02-17T09:26:25.166Z,81.28
2019-02-17T09:27:00.462Z,80.99
2019-02-17T09:27:35.923Z,81.32
2019-02-17T09:28:11.100Z,81.32
2019-02-17T09:28:46.434Z,81.32
2019-02-17T09:29:21.714Z,81.03
2019-02-17T09:29:57.136Z,81.13
2019-02-17T09:30:32.579Z,81.13
2019-02-17T09:31:08.191Z,81.32
2019-02-17T09:31:43.385Z,80.94
2019-02-17T09:32:18.715Z,81.03
2019-02-17T09:32:54.253Z,81.13
2019-02-17T09:33:29.564Z,81.32
2019-02-17T09:34:04.842Z,80.75
2019-02-17T09:34:40.089Z,81.41
2019-02-17T09:35:15.698Z,81.41
2019-02-17T09:35:50.809Z,81.13
2019-02-17T09:36:26.189Z,80.55
2019-02-17T09:37:01.716Z,80.79
2019-02-17T09:37:36.897Z,81.60
2019-02-17T09:38:12.047Z,81.03
2019-02-17T09:38:47.542Z,81.17
2019-02-17T09:39:22.858Z,81.32
2019-02-17T09:39:58.034Z,81.36
2019-02-17T09:40:33.445Z,81.17
2019-02-17T09:41:08.522Z,80.98
2019-02-17T09:41:44.733Z,81.26
2019-02-17T09:42:20.111Z,81.36
2019-02-17T09:42:55.533Z,81.07
2019-02-17T09:43:31.071Z,81.93
2019-02-17T09:44:06.301Z,81.17
2019-02-17T09:44:41.883Z,81.17
2019-02-17T09:45:16.913Z,81.07
2019-02-17T09:45:52.095Z,81.07
2019-02-17T09:46:27.310Z,81.17
2019-02-17T09:47:02.488Z,80.60
2019-02-17T09:47:37.812Z,81.07
2019-02-17T09:48:13.105Z,81.17
2019-02-17T09:48:48.544Z,81.07
2019-02-17T09:49:23.713Z,80.64
2019-02-17T09:49:59.338Z,81.30
2019-02-17T09:50:34.530Z,81.30
2019-02-17T09:51:09.645Z,80.92
2019-02-17T09:51:45.033Z,81.02
2019-02-17T09:52:20.554Z,81.49
2019-02-17T09:52:55.850Z,80.73
2019-02-17T09:53:30.948Z,80.44
2019-02-17T09:54:06.381Z,80.73
2019-02-17T09:54:41.796Z,81.40
2019-02-17T09:55:17.180Z,81.21
2019-02-17T09:55:52.476Z,81.21
2019-02-17T09:56:27.860Z,81.21
2019-02-17T09:57:03.196Z,81.68
2019-02-17T09:57:38.716Z,80.64
2019-02-17T09:58:14.041Z,81.02
2019-02-17T09:58:49.409Z,81.21
2019-02-17T09:59:24.751Z,81.40
2019-02-17T09:59:59.738Z,80.92
2019-02-17T10:00:35.447Z,81.12
2019-02-17T10:01:10.835Z,81.30
2019-02-17T10:01:46.062Z,81.30
2019-02-17T10:02:26.553Z,81.40
2019-02-17T10:02:57.190Z,81.49
2019-02-17T10:03:32.696Z,81.49
2019-02-17T10:04:07.905Z,81.02
2019-02-17T10:04:43.134Z,81.12
2019-02-17T10:05:18.573Z,81.30
2019-02-17T10:05:53.950Z,81.30
2019-02-17T10:06:29.178Z,81.59
2019-02-17T10:07:04.550Z,81.59
2019-02-17T10:07:40.390Z,81.21
2019-02-17T10:08:15.678Z,80.92
2019-02-17T10:08:51.182Z,80.92
2019-02-17T10:09:26.365Z,81.15
2019-02-17T10:10:01.842Z,81.15
2019-02-17T10:10:37.423Z,81.44
2019-02-17T10:11:12.731Z,81.15
2019-02-17T10:11:47.946Z,80.87
2019-02-17T10:12:23.359Z,80.68
2019-02-17T10:13:01.175Z,80.68
2019-02-17T10:13:34.249Z,81.82
2019-02-17T10:14:09.442Z,81.92
2019-02-17T10:14:44.658Z,81.29
2019-02-17T10:15:19.987Z,81.10
2019-02-17T10:15:55.428Z,81.48
2019-02-17T10:16:30.629Z,81.29
2019-02-17T10:17:06.036Z,80.91
2019-02-17T10:17:41.227Z,80.72
2019-02-17T10:18:16.666Z,80.62
2019-02-17T10:18:51.758Z,80.62
2019-02-17T10:19:27.277Z,81.29
2019-02-17T10:20:02.555Z,81.29
2019-02-17T10:20:37.826Z,81.01
2019-02-17T10:21:13.412Z,81.24
2019-02-17T10:21:48.831Z,80.57
2019-02-17T10:22:24.211Z,80.66
2019-02-17T10:22:59.623Z,79.99
2019-02-17T10:23:34.920Z,80.76
2019-02-17T10:24:10.368Z,81.52
2019-02-17T10:24:45.746Z,79.99
2019-02-17T10:25:20.974Z,80.66
2019-02-17T10:25:56.600Z,81.04
2019-02-17T10:26:31.620Z,82.67
2019-02-17T10:27:06.695Z,81.04
2019-02-17T10:27:42.296Z,80.66
2019-02-17T10:28:17.672Z,81.71
2019-02-17T10:28:52.991Z,81.14
2019-02-17T10:29:28.469Z,81.33
2019-02-17T10:30:04.088Z,81.24
2019-02-17T10:30:39.663Z,80.95
2019-02-17T10:31:15.034Z,80.70
2019-02-17T10:31:50.614Z,81.24
2019-02-17T10:32:35.811Z,81.04
2019-02-17T10:33:01.396Z,81.14
2019-02-17T10:33:38.097Z,81.27
2019-02-17T10:34:13.417Z,80.57
2019-02-17T10:34:48.937Z,80.90
2019-02-17T10:35:24.245Z,80.70
2019-02-17T10:35:59.975Z,80.99
2019-02-17T10:36:35.370Z,80.80
2019-02-17T10:37:10.881Z,81.47
2019-02-17T10:37:46.255Z,80.80
2019-02-17T10:38:21.798Z,80.99
2019-02-17T10:38:58.412Z,81.18
2019-02-17T10:39:32.326Z,81.27
2019-02-17T10:40:07.720Z,81.56
2019-02-17T10:40:43.240Z,81.09
2019-02-17T10:41:18.629Z,80.51
2019-02-17T10:41:54.530Z,80.80
2019-02-17T10:42:29.712Z,80.32
2019-02-17T10:43:04.824Z,80.70
2019-02-17T10:43:40.008Z,80.13
2019-02-17T10:44:15.431Z,80.22
2019-02-17T10:44:50.941Z,80.32
2019-02-17T10:45:26.549Z,80.90
2019-02-17T10:46:01.732Z,80.80
2019-02-17T10:46:37.616Z,80.51
2019-02-17T10:47:13.336Z,80.61
2019-02-17T10:47:48.772Z,79.17
2019-02-17T10:48:23.941Z,79.85
2019-02-17T10:48:59.357Z,79.17
2019-02-17T10:49:34.874Z,80.55
2019-02-17T10:50:10.488Z,80.22
2019-02-17T10:50:45.680Z,80.13
2019-02-17T10:51:21.400Z,80.65
2019-02-17T10:51:57.087Z,81.18
2019-02-17T10:52:32.522Z,81.03
2019-02-17T10:53:07.614Z,81.27
2019-02-17T10:53:42.846Z,81.03
2019-02-17T10:54:18.122Z,81.22
2019-02-17T10:54:53.366Z,81.79
2019-02-17T10:55:28.735Z,81.13
2019-02-17T10:56:04.365Z,80.55
2019-02-17T10:56:39.566Z,79.88
2019-02-17T10:57:14.959Z,79.69
2019-02-17T10:57:50.297Z,79.41
2019-02-17T10:58:25.922Z,80.27
2019-02-17T10:59:01.305Z,81.79
2019-02-17T10:59:36.587Z,80.46
2019-02-17T11:00:12.033Z,80.55
2019-02-17T11:00:47.261Z,80.46
2019-02-17T11:01:22.659Z,80.07
2019-02-17T11:01:57.956Z,80.88
2019-02-17T11:02:33.341Z,80.27
2019-02-17T11:03:08.822Z,80.11
2019-02-17T11:03:44.233Z,80.59
2019-02-17T11:04:19.650Z,79.16
2019-02-17T11:04:54.919Z,79.06
2019-02-17T11:05:30.039Z,79.25
2019-02-17T11:06:05.335Z,79.25
2019-02-17T11:06:40.663Z,78.78
2019-02-17T11:07:16.183Z,78.68
2019-02-17T11:07:51.605Z,78.55
2019-02-17T11:08:27.056Z,79.31
2019-02-17T11:09:02.551Z,79.41
2019-02-17T11:09:38.178Z,78.74
2019-02-17T11:10:13.490Z,79.54
2019-02-17T11:10:48.791Z,79.88
2019-02-17T11:11:24.324Z,80.27
2019-02-17T11:11:59.911Z,79.64
2019-02-17T11:12:35.545Z,79.44
2019-02-17T11:13:10.853Z,79.25
2019-02-17T11:13:46.309Z,79.83
2019-02-17T11:14:21.899Z,79.64
2019-02-17T11:14:57.530Z,79.22
2019-02-17T11:15:33.226Z,79.93
2019-02-17T11:16:08.653Z,79.25
2019-02-17T11:16:43.944Z,79.16
2019-02-17T11:17:19.186Z,79.73
2019-02-17T11:17:54.698Z,78.87
2019-02-17T11:18:29.940Z,78.78
2019-02-17T11:19:05.318Z,79.83
2019-02-17T11:19:40.600Z,80.40
2019-02-17T11:20:15.993Z,80.50
2019-02-17T11:20:51.232Z,79.73
2019-02-17T11:21:26.607Z,79.83
2019-02-17T11:22:02.142Z,80.11
2019-02-17T11:22:37.329Z,80.88
2019-02-17T11:23:12.568Z,81.36
2019-02-17T11:23:47.870Z,80.40
2019-02-17T11:24:23.412Z,80.50
2019-02-17T11:24:58.734Z,79.73
2019-02-17T11:25:34.125Z,79.25
2019-02-17T11:26:09.455Z,78.87
2019-02-17T11:26:45.088Z,80.11
2019-02-17T11:27:20.404Z,80.50
2019-02-17T11:27:55.528Z,81.36
2019-02-17T11:28:30.813Z,80.98
2019-02-17T11:29:06.268Z,80.59
2019-02-17T11:29:41.381Z,80.21
2019-02-17T11:30:16.912Z,79.06
2019-02-17T11:30:52.321Z,79.35
2019-02-17T11:31:27.667Z,79.54
2019-02-17T11:32:03.088Z,79.35
2019-02-17T11:32:38.208Z,79.64
2019-02-17T11:33:13.609Z,79.25
2019-02-17T11:33:49.224Z,79.16
2019-02-17T11:34:24.315Z,79.06
2019-02-17T11:34:59.678Z,79.29
2019-02-17T11:35:35.278Z,79.00
2019-02-17T11:36:10.724Z,79.00
2019-02-17T11:36:46.232Z,78.43
2019-02-17T11:37:22.006Z,78.24
2019-02-17T11:37:57.619Z,78.05
2019-02-17T11:38:32.977Z,79.10
2019-02-17T11:39:08.381Z,77.95
2019-02-17T11:39:43.799Z,78.28
2019-02-17T11:40:19.337Z,76.84
2019-02-17T11:40:54.762Z,76.08
2019-02-17T11:41:30.087Z,75.79
2019-02-17T11:42:05.335Z,76.56
2019-02-17T11:42:40.857Z,75.98
2019-02-17T11:43:16.220Z,75.60
2019-02-17T11:43:51.525Z,74.84
2019-02-17T11:44:26.685Z,74.49
2019-02-17T11:45:02.274Z,74.36
2019-02-17T11:45:38.007Z,74.49
2019-02-17T11:46:13.195Z,74.01
2019-02-17T11:46:48.728Z,74.97
2019-02-17T11:47:24.322Z,74.87
2019-02-17T11:47:59.761Z,75.54
2019-02-17T11:48:35.148Z,76.60
2019-02-17T11:49:10.471Z,78.22
2019-02-17T11:49:45.678Z,78.51
2019-02-17T11:50:21.006Z,78.32
2019-02-17T11:50:56.435Z,78.32
2019-02-17T11:51:31.758Z,77.26
2019-02-17T11:52:07.265Z,77.36
2019-02-17T11:52:42.797Z,76.31
2019-02-17T11:53:18.302Z,76.12
2019-02-17T11:53:53.931Z,75.73
2019-02-17T11:54:29.227Z,76.98
2019-02-17T11:55:04.698Z,78.32
2019-02-17T11:55:40.226Z,78.61
2019-02-17T11:56:15.465Z,78.42
2019-02-17T11:56:50.828Z,77.08
2019-02-17T11:57:26.230Z,75.35
2019-02-17T11:58:01.532Z,76.98
2019-02-17T11:58:37.066Z,77.94
2019-02-17T11:59:12.418Z,77.46
2019-02-17T11:59:47.657Z,76.02
2019-02-17T12:00:23.215Z,76.21
2019-02-17T12:00:58.677Z,75.64
2019-02-17T12:01:34.463Z,76.12
2019-02-17T12:02:09.901Z,76.40
2019-02-17T12:02:45.180Z,76.50
2019-02-17T12:03:20.712Z,75.73
2019-02-17T12:03:56.101Z,76.31
2019-02-17T12:04:31.894Z,76.79
2019-02-17T12:05:07.161Z,76.21
2019-02-17T12:05:42.791Z,77.26
2019-02-17T12:06:18.192Z,76.40
2019-02-17T12:06:53.653Z,75.35
2019-02-17T12:07:28.878Z,75.45
2019-02-17T12:08:04.393Z,74.58
2019-02-17T12:08:39.601Z,74.30
2019-02-17T12:09:14.932Z,76.12
2019-02-17T12:09:50.253Z,76.50
2019-02-17T12:10:25.802Z,76.98
2019-02-17T12:11:01.132Z,76.12
2019-02-17T12:11:37.310Z,76.31
2019-02-17T12:12:13.729Z,75.93
2019-02-17T12:12:48.219Z,74.62
2019-02-17T12:13:23.526Z,74.33
2019-02-17T12:13:59.185Z,74.15
2019-02-17T12:14:34.686Z,73.57
2019-02-17T12:15:10.319Z,74.05
2019-02-17T12:15:46.011Z,74.52
2019-02-17T12:16:21.763Z,73.28
2019-02-17T12:16:57.077Z,73.95
2019-02-17T12:17:32.768Z,74.24
2019-02-17T12:18:08.254Z,73.86
2019-02-17T12:18:43.690Z,73.66
2019-02-17T12:19:18.668Z,73.82
2019-02-17T12:19:53.834Z,74.20
2019-02-17T12:20:29.018Z,73.91
2019-02-17T12:21:04.353Z,73.63
2019-02-17T12:21:39.878Z,73.86
2019-02-17T12:22:15.507Z,73.91
2019-02-17T12:22:50.846Z,73.24
2019-02-17T12:23:26.287Z,74.20
2019-02-17T12:24:02.616Z,73.91
2019-02-17T12:24:37.163Z,74.11
2019-02-17T12:25:12.746Z,73.19
2019-02-17T12:25:48.112Z,73.09
2019-02-17T12:26:23.399Z,73.54
2019-02-17T12:26:58.966Z,72.90
2019-02-17T12:27:34.268Z,72.61
2019-02-17T12:28:10.039Z,72.61
2019-02-17T12:28:45.556Z,72.90
2019-02-17T12:29:20.868Z,72.61
2019-02-17T12:29:56.395Z,72.42
2019-02-17T12:30:32.023Z,73.57
2019-02-17T12:31:07.329Z,72.80
2019-02-17T12:31:42.758Z,72.61
2019-02-17T12:32:18.074Z,72.99
2019-02-17T12:32:53.500Z,73.47
2019-02-17T12:33:28.714Z,72.61
2019-02-17T12:34:04.246Z,72.42
2019-02-17T12:34:39.338Z,72.52
2019-02-17T12:35:14.657Z,71.66
2019-02-17T12:35:50.065Z,71.75
2019-02-17T12:36:25.385Z,71.46
2019-02-17T12:37:00.772Z,71.66
2019-02-17T12:37:35.902Z,71.46
2019-02-17T12:38:11.508Z,72.42
2019-02-17T12:38:47.007Z,72.13
2019-02-17T12:39:22.303Z,72.52
2019-02-17T12:39:57.695Z,72.96
2019-02-17T12:40:33.148Z,72.13
2019-02-17T12:41:08.523Z,72.23
2019-02-17T12:41:43.963Z,72.13
2019-02-17T12:42:19.403Z,72.71
2019-02-17T12:42:54.704Z,72.13
2019-02-17T12:43:30.484Z,72.61
2019-02-17T12:44:05.704Z,72.80
2019-02-17T12:44:40.945Z,73.28
2019-02-17T12:45:18.226Z,73.57
2019-02-17T12:45:51.574Z,73.38
2019-02-17T12:46:26.899Z,73.19
2019-02-17T12:47:02.440Z,72.13
2019-02-17T12:47:37.999Z,72.03
2019-02-17T12:48:13.439Z,72.09
2019-02-17T12:48:48.749Z,71.84
2019-02-17T12:49:24.155Z,72.58
2019-02-17T12:49:59.383Z,72.90
2019-02-17T12:50:34.727Z,72.99
2019-02-17T12:51:10.141Z,72.42
2019-02-17T12:51:46.018Z,72.23
2019-02-17T12:52:21.412Z,72.13
2019-02-17T12:52:56.897Z,73.28
2019-02-17T12:53:32.606Z,73.19
2019-02-17T12:54:08.069Z,72.42
2019-02-17T12:54:43.518Z,71.56
2019-02-17T12:55:18.840Z,71.17
2019-02-17T12:55:54.198Z,71.66
2019-02-17T12:56:29.496Z,71.37
2019-02-17T12:57:04.834Z,71.37
2019-02-17T12:57:40.587Z,71.27
2019-02-17T12:58:15.837Z,70.98
2019-02-17T12:58:51.191Z,70.89
2019-02-17T12:59:26.470Z,71.56
2019-02-17T13:00:02.026Z,71.27
2019-02-17T13:00:37.222Z,71.84
2019-02-17T13:01:13.552Z,71.94
2019-02-17T13:01:48.531Z,72.52
2019-02-17T13:02:23.550Z,71.75
2019-02-17T13:02:58.756Z,71.17
2019-02-17T13:03:33.989Z,71.08
2019-02-17T13:04:09.278Z,71.17
2019-02-17T13:04:44.501Z,70.98
2019-02-17T13:05:20.173Z,70.89
2019-02-17T13:05:55.442Z,70.89
2019-02-17T13:06:31.024Z,71.27
2019-02-17T13:07:06.151Z,72.52
2019-02-17T13:07:42.909Z,72.32
2019-02-17T13:08:17.504Z,71.27
2019-02-17T13:08:52.707Z,71.46
2019-02-17T13:09:28.129Z,70.79
2019-02-17T13:10:03.628Z,69.64
2019-02-17T13:10:38.979Z,69.54
2019-02-17T13:11:14.477Z,69.48
2019-02-17T13:11:49.698Z,69.01
2019-02-17T13:12:24.995Z,69.01
2019-02-17T13:13:01.222Z,69.39
2019-02-17T13:13:36.517Z,69.48
2019-02-17T13:14:11.953Z,69.35
2019-02-17T13:14:47.356Z,69.01
2019-02-17T13:15:22.684Z,69.29
2019-02-17T13:15:57.814Z,68.62
2019-02-17T13:16:33.336Z,68.81
2019-02-17T13:17:08.959Z,68.43
2019-02-17T13:17:44.395Z,68.43
2019-02-17T13:18:19.584Z,69.68
2019-02-17T13:18:55.004Z,69.58
2019-02-17T13:19:30.348Z,68.91
2019-02-17T13:20:05.861Z,69.10
2019-02-17T13:20:41.179Z,68.97
2019-02-17T13:21:16.693Z,69.07
2019-02-17T13:21:52.170Z,68.91
2019-02-17T13:22:27.496Z,69.58
2019-02-17T13:23:02.994Z,69.96
2019-02-17T13:23:38.437Z,70.35
2019-02-17T13:24:13.742Z,69.58
2019-02-17T13:24:49.183Z,69.39
2019-02-17T13:25:24.590Z,68.62
2019-02-17T13:25:59.926Z,68.24
2019-02-17T13:26:35.536Z,68.33
2019-02-17T13:27:10.768Z,68.33
2019-02-17T13:27:46.039Z,68.43
2019-02-17T13:28:21.551Z,68.72
2019-02-17T13:28:56.953Z,68.72
2019-02-17T13:29:32.179Z,69.01
2019-02-17T13:30:07.487Z,69.01
2019-02-17T13:30:43.123Z,69.58
2019-02-17T13:31:18.726Z,69.01
2019-02-17T13:31:54.181Z,68.52
2019-02-17T13:32:29.572Z,68.72
2019-02-17T13:33:05.003Z,67.66
2019-02-17T13:33:40.288Z,67.66
2019-02-17T13:34:15.612Z,67.85
2019-02-17T13:34:51.128Z,68.05
2019-02-17T13:35:26.673Z,67.85
2019-02-17T13:36:02.171Z,67.76
2019-02-17T13:36:37.584Z,67.38
2019-02-17T13:37:13.116Z,66.99
2019-02-17T13:37:48.351Z,67.47
2019-02-17T13:38:23.652Z,67.28
2019-02-17T13:38:58.763Z,68.72
2019-02-17T13:39:34.154Z,68.43
2019-02-17T13:40:09.680Z,69.29
2019-02-17T13:40:44.969Z,68.43
2019-02-17T13:41:20.376Z,68.91
2019-02-17T13:41:55.664Z,69.29
2019-02-17T13:42:31.224Z,69.68
2019-02-17T13:43:06.832Z,69.39
2019-02-17T13:43:42.250Z,69.10
2019-02-17T13:44:17.549Z,69.58
2019-02-17T13:44:52.783Z,70.15
2019-02-17T13:45:28.182Z,69.96
2019-02-17T13:46:03.704Z,69.68
2019-02-17T13:46:39.206Z,69.48
2019-02-17T13:47:14.631Z,69.01
2019-02-17T13:47:50.359Z,69.01
2019-02-17T13:48:25.698Z,69.01
2019-02-17T13:49:00.797Z,69.48
2019-02-17T13:49:36.016Z,69.58
2019-02-17T13:50:11.330Z,69.77
2019-02-17T13:50:47.023Z,69.29
2019-02-17T13:51:22.167Z,69.68
2019-02-17T13:51:57.499Z,70.15
2019-02-17T13:52:32.925Z,70.64
2019-02-17T13:53:11.847Z,71.11
2019-02-17T13:53:43.803Z,70.35
2019-02-17T13:54:18.936Z,70.25
2019-02-17T13:54:54.267Z,69.29
2019-02-17T13:55:29.495Z,68.91
2019-02-17T13:56:04.892Z,68.81
2019-02-17T13:56:40.411Z,69.01
2019-02-17T13:57:15.822Z,69.20
2019-02-17T13:57:52.427Z,69.20
2019-02-17T13:58:26.678Z,69.48
2019-02-17T13:59:02.011Z,70.83
2019-02-17T13:59:37.533Z,70.92
2019-02-17T14:00:12.862Z,70.54
2019-02-17T14:00:48.166Z,69.77
2019-02-17T14:01:23.692Z,69.20
2019-02-17T14:01:58.905Z,69.20
2019-02-17T14:02:34.533Z,68.91
2019-02-17T14:03:09.828Z,69.01
2019-02-17T14:03:48.975Z,69.20
2019-02-17T14:04:20.834Z,69.01
2019-02-17T14:04:56.182Z,68.43
2019-02-17T14:05:31.595Z,68.14
2019-02-17T14:06:07.225Z,68.62
2019-02-17T14:06:42.627Z,68.33
2019-02-17T14:07:18.054Z,68.33
2019-02-17T14:07:53.454Z,68.24
2019-02-17T14:08:31.229Z,68.62
2019-02-17T14:09:04.030Z,69.29
2019-02-17T14:09:39.674Z,68.24
2019-02-17T14:10:15.097Z,68.14
2019-02-17T14:10:50.732Z,68.43
2019-02-17T14:11:26.154Z,68.24
2019-02-17T14:12:04.887Z,68.14
2019-02-17T14:12:40.314Z,68.52
2019-02-17T14:13:15.871Z,68.24
2019-02-17T14:13:51.447Z,68.62
2019-02-17T14:14:26.835Z,68.33
2019-02-17T14:15:02.236Z,68.33
2019-02-17T14:15:38.410Z,69.20
2019-02-17T14:16:13.604Z,68.43
2019-02-17T14:16:48.947Z,69.48
2019-02-17T14:17:24.247Z,69.58
2019-02-17T14:17:59.702Z,69.39
2019-02-17T14:18:34.995Z,70.64
2019-02-17T14:19:10.215Z,70.35
2019-02-17T14:19:46.032Z,69.77
2019-02-17T14:20:20.888Z,69.10
2019-02-17T14:20:56.386Z,68.24
2019-02-17T14:21:31.725Z,68.33
2019-02-17T14:22:07.115Z,67.95
2019-02-17T14:22:42.548Z,67.76
2019-02-17T14:23:17.834Z,67.18
2019-02-17T14:23:53.092Z,67.66
2019-02-17T14:24:28.417Z,68.52
2019-02-17T14:25:03.784Z,69.01
2019-02-17T14:25:38.881Z,69.01
2019-02-17T14:26:14.428Z,69.29
2019-02-17T14:26:49.569Z,68.52
2019-02-17T14:27:24.886Z,68.62
2019-02-17T14:28:00.290Z,69.10
2019-02-17T14:28:35.535Z,68.87
2019-02-17T14:29:10.946Z,69.10
2019-02-17T14:29:46.478Z,68.62
2019-02-17T14:30:21.804Z,69.10
2019-02-17T14:30:57.040Z,69.01
2019-02-17T14:31:32.385Z,68.78
2019-02-17T14:32:07.610Z,68.91
2019-02-17T14:32:42.939Z,69.29
2019-02-17T14:33:18.273Z,69.01
2019-02-17T14:33:58.512Z,68.97
2019-02-17T14:34:28.810Z,69.01
2019-02-17T14:35:04.422Z,68.81
2019-02-17T14:35:39.890Z,69.74
2019-02-17T14:36:15.213Z,69.45
2019-02-17T14:36:50.653Z,69.07
2019-02-17T14:37:26.249Z,68.81
2019-02-17T14:38:01.595Z,68.72
2019-02-17T14:38:36.682Z,69.10
2019-02-17T14:39:12.138Z,68.33
2019-02-17T14:39:47.639Z,68.21
2019-02-17T14:40:22.889Z,68.62
2019-02-17T14:40:58.121Z,68.81
2019-02-17T14:41:33.358Z,68.78
2019-02-17T14:42:08.648Z,68.30
2019-02-17T14:42:44.424Z,68.24
2019-02-17T14:43:19.725Z,68.30
2019-02-17T14:43:55.051Z,68.33
2019-02-17T14:44:30.361Z,67.85
2019-02-17T14:45:05.587Z,68.14
2019-02-17T14:45:40.975Z,67.85
2019-02-17T14:46:17.476Z,68.33
2019-02-17T14:46:52.839Z,68.97
2019-02-17T14:47:28.798Z,69.10
2019-02-17T14:48:04.581Z,68.81
2019-02-17T14:48:39.913Z,69.29
2019-02-17T14:49:15.318Z,68.62
2019-02-17T14:49:50.908Z,68.52
2019-02-17T14:50:26.508Z,68.21
2019-02-17T14:51:02.017Z,68.49
2019-02-17T14:51:37.586Z,68.87
2019-02-17T14:52:13.110Z,68.97
2019-02-17T14:52:48.417Z,68.59
2019-02-17T14:53:23.763Z,68.43
2019-02-17T14:53:59.255Z,68.72
2019-02-17T14:54:34.693Z,68.62
2019-02-17T14:55:10.211Z,68.30
2019-02-17T14:55:45.559Z,66.99
2019-02-17T14:56:21.045Z,66.51
2019-02-17T14:56:56.955Z,66.03
2019-02-17T14:57:32.460Z,65.94
2019-02-17T14:58:08.029Z,65.75
2019-02-17T14:58:43.324Z,64.79
2019-02-17T14:59:18.744Z,64.59
2019-02-17T14:59:54.040Z,64.22
2019-02-17T15:00:29.469Z,64.02
2019-02-17T15:01:04.779Z,64.31
2019-02-17T15:01:40.112Z,64.22
2019-02-17T15:02:15.535Z,64.79
2019-02-17T15:02:50.868Z,64.50
2019-02-17T15:03:26.066Z,64.40
2019-02-17T15:04:08.479Z,63.73
2019-02-17T15:04:36.794Z,63.35
2019-02-17T15:05:12.227Z,62.96
2019-02-17T15:05:48.014Z,63.26
2019-02-17T15:06:23.075Z,63.64
2019-02-17T15:06:58.694Z,62.87
2019-02-17T15:07:33.971Z,62.59
2019-02-17T15:08:09.363Z,63.45
2019-02-17T15:08:44.686Z,64.50
2019-02-17T15:09:20.186Z,64.22
2019-02-17T15:09:55.598Z,64.69
2019-02-17T15:10:30.903Z,63.92
2019-02-17T15:11:06.651Z,63.92
2019-02-17T15:11:42.256Z,64.69
2019-02-17T15:12:17.679Z,63.92
2019-02-17T15:12:53.381Z,63.22
2019-02-17T15:13:28.735Z,62.59
2019-02-17T15:14:04.156Z,62.59
2019-02-17T15:14:39.362Z,62.77
2019-02-17T15:15:14.581Z,63.13
2019-02-17T15:15:50.099Z,63.45
2019-02-17T15:16:25.351Z,63.45
2019-02-17T15:17:00.561Z,64.02
2019-02-17T15:17:35.971Z,63.54
2019-02-17T15:18:11.232Z,63.35
2019-02-17T15:18:47.480Z,62.87
2019-02-17T15:19:22.373Z,62.87
2019-02-17T15:19:57.860Z,62.87
2019-02-17T15:20:33.289Z,63.26
2019-02-17T15:21:08.610Z,62.87
2019-02-17T15:21:43.848Z,62.96
2019-02-17T15:22:19.249Z,63.35
2019-02-17T15:22:54.635Z,63.26
2019-02-17T15:23:30.580Z,63.45
2019-02-17T15:24:07.860Z,63.73
2019-02-17T15:24:41.465Z,63.42
2019-02-17T15:25:16.779Z,63.89
2019-02-17T15:25:52.087Z,63.70
2019-02-17T15:26:28.012Z,64.37
2019-02-17T15:27:03.757Z,63.99
2019-02-17T15:27:38.800Z,63.70
2019-02-17T15:28:14.189Z,63.99
2019-02-17T15:28:51.361Z,64.31
2019-02-17T15:29:24.648Z,63.89
2019-02-17T15:29:59.823Z,63.80
2019-02-17T15:30:35.323Z,64.37
2019-02-17T15:31:10.940Z,64.47
2019-02-17T15:31:46.253Z,64.95
2019-02-17T15:32:21.949Z,64.95
2019-02-17T15:33:03.606Z,65.14
2019-02-17T15:33:32.717Z,65.42
2019-02-17T15:34:08.043Z,65.52
2019-02-17T15:34:43.475Z,66.09
2019-02-17T15:35:18.887Z,66.58
2019-02-17T15:35:54.631Z,66.29
2019-02-17T15:36:29.739Z,67.05
2019-02-17T15:37:04.882Z,67.44
2019-02-17T15:37:40.084Z,66.96
2019-02-17T15:38:15.414Z,67.44
2019-02-17T15:38:51.007Z,67.44
2019-02-17T15:39:26.721Z,68.40
2019-02-17T15:40:01.917Z,68.21
2019-02-17T15:40:37.275Z,68.40
2019-02-17T15:41:12.657Z,68.97
2019-02-17T15:41:48.093Z,68.59
2019-02-17T15:42:23.415Z,68.68
2019-02-17T15:42:58.552Z,68.68
2019-02-17T15:43:33.647Z,69.45
2019-02-17T15:44:08.868Z,69.32
2019-02-17T15:44:44.608Z,70.09
2019-02-17T15:45:20.136Z,69.80
2019-02-17T15:45:55.774Z,70.18
2019-02-17T15:46:31.217Z,70.09
2019-02-17T15:47:06.427Z,69.89
2019-02-17T15:47:41.997Z,70.09
2019-02-17T15:48:17.704Z,70.18
2019-02-17T15:48:53.835Z,70.47
2019-02-17T15:49:29.151Z,70.66
2019-02-17T15:50:04.913Z,71.14
2019-02-17T15:50:40.421Z,70.85
2019-02-17T15:51:16.589Z,71.33
2019-02-17T15:51:52.937Z,71.33
2019-02-17T15:52:36.308Z,71.52
2019-02-17T15:53:17.549Z,72.00
2019-02-17T15:53:53.811Z,72.19
2019-02-17T15:54:29.296Z,72.48
2019-02-17T15:55:04.654Z,72.48
2019-02-17T15:55:40.117Z,72.19
2019-02-17T15:56:15.459Z,72.19
2019-02-17T15:56:50.778Z,71.91
2019-02-17T15:57:26.109Z,71.71
2019-02-17T15:58:01.416Z,71.81